createdAt,value
2023-12-10T08:26:40.053Z,6.77
2023-12-10T08:27:41.795Z,6.90
2023-12-10T08:28:43.334Z,6.79
2023-12-10T08:29:44.875Z,6.84
2023-12-10T08:30:46.627Z,6.93
2023-12-10T08:31:48.027Z,6.88
2023-12-10T08:37:46.378Z,7.17
2023-12-10T08:38:48.269Z,7.39
2023-12-10T08:39:50.767Z,7.05
2023-12-10T08:40:52.235Z,6.96
2023-12-10T08:41:53.672Z,6.95
2023-12-10T08:42:55.360Z,7.17
2023-12-10T08:43:57.199Z,7.13
2023-12-10T08:45:01.344Z,7.84
2023-12-10T08:46:03.581Z,8.66
2023-12-10T08:47:05.348Z,8.28
2023-12-10T08:48:06.936Z,8.24
2023-12-10T08:49:09.318Z,8.53
2023-12-10T08:50:10.934Z,8.23
2023-12-10T08:51:12.351Z,8.77
2023-12-10T08:52:13.861Z,9.29
2023-12-10T08:53:15.302Z,9.72
2023-12-10T08:54:17.642Z,8.73
2023-12-10T08:55:19.262Z,8.49
2023-12-10T08:56:20.785Z,9.07
2023-12-10T08:57:23.159Z,8.84
2023-12-10T08:58:24.805Z,8.43
2023-12-10T08:59:26.328Z,8.00
2023-12-10T09:00:27.996Z,7.64
2023-12-10T09:01:29.747Z,7.34
2023-12-10T09:02:31.575Z,7.06
2023-12-10T09:03:33.497Z,6.92
2023-12-10T09:04:35.124Z,6.65
2023-12-10T09:05:36.792Z,6.66
2023-12-10T09:06:38.308Z,6.53
2023-12-10T09:07:39.852Z,6.40
2023-12-10T09:18:04.236Z,5.82
2023-12-10T09:19:05.957Z,6.07
2023-12-10T09:20:08.619Z,6.89
2023-12-10T09:21:10.130Z,6.84
2023-12-10T09:22:11.720Z,6.62
2023-12-10T09:23:13.629Z,6.81
2023-12-10T09:24:16.270Z,6.56
2023-12-10T09:25:17.781Z,6.47
2023-12-10T09:26:20.819Z,6.45
2023-12-10T09:27:22.481Z,6.53
2023-12-10T09:28:24.266Z,6.69
2023-12-10T09:29:25.749Z,6.52
2023-12-10T09:30:27.267Z,6.43
2023-12-10T09:31:28.956Z,6.47
2023-12-10T09:32:30.890Z,6.59
2023-12-10T09:33:32.831Z,6.78
2023-12-10T09:34:34.821Z,6.65
2023-12-10T09:35:36.736Z,6.58
2023-12-10T09:36:38.306Z,6.57
2023-12-10T09:37:39.954Z,6.40
2023-12-10T09:38:41.445Z,6.42
2023-12-10T09:39:43.043Z,6.38
2023-12-10T09:49:54.860Z,6.01
2023-12-10T09:50:56.491Z,6.12
2023-12-10T09:59:41.582Z,5.98
2023-12-10T10:00:43.769Z,5.94
2023-12-10T10:08:11.294Z,6.05
2023-12-10T10:09:21.231Z,6.01
2023-12-10T10:17:01.461Z,6.09
2023-12-10T10:18:06.047Z,6.09
2023-12-10T10:24:54.403Z,6.10
2023-12-10T10:25:55.884Z,6.19
2023-12-10T10:26:58.091Z,6.23
2023-12-10T10:27:59.603Z,6.41
2023-12-10T10:29:03.151Z,6.45
2023-12-10T10:30:05.436Z,6.45
2023-12-10T10:31:07.676Z,6.61
2023-12-10T10:32:16.129Z,6.55
2023-12-10T10:33:17.854Z,6.65
2023-12-10T10:34:20.271Z,6.61
2023-12-10T10:35:21.991Z,6.83
2023-12-10T10:36:23.675Z,6.80
2023-12-10T10:37:25.600Z,6.72
2023-12-10T10:49:21.939Z,6.25
2023-12-10T10:50:26.570Z,6.35
2023-12-10T11:00:03.582Z,6.44
2023-12-10T11:01:07.081Z,6.43
2023-12-10T11:07:07.535Z,6.63
2023-12-10T11:08:11.617Z,6.61
2023-12-10T11:09:13.163Z,7.13
2023-12-10T11:10:14.809Z,8.05
2023-12-10T11:11:16.315Z,7.59
2023-12-10T11:12:40.973Z,7.31
2023-12-10T11:13:43.136Z,7.11
2023-12-10T11:14:44.551Z,6.97
2023-12-10T11:23:33.569Z,6.67
2023-12-10T11:24:35.209Z,6.70
2023-12-10T11:30:29.182Z,6.75
2023-12-10T11:31:30.706Z,6.85
2023-12-10T11:32:32.128Z,6.88
2023-12-10T11:33:33.782Z,6.94
2023-12-10T11:34:35.503Z,7.03
2023-12-10T11:35:37.459Z,7.13
2023-12-10T11:36:39.903Z,7.30
2023-12-10T11:37:44.546Z,7.64
2023-12-10T11:38:47.900Z,7.55
2023-12-10T11:39:49.865Z,7.43
2023-12-10T11:40:51.347Z,7.43
2023-12-10T11:41:59.775Z,7.40
2023-12-10T11:43:09.150Z,7.80
2023-12-10T11:44:11.455Z,7.68
2023-12-10T11:45:14.563Z,7.66
2023-12-10T11:46:26.467Z,7.77
2023-12-10T11:47:33.819Z,7.96
2023-12-10T11:48:35.801Z,7.77
2023-12-10T11:49:37.502Z,7.88
2023-12-10T11:50:39.013Z,7.84
2023-12-10T11:51:42.538Z,7.79
2023-12-10T11:52:44.078Z,7.68
2023-12-10T11:53:46.994Z,7.60
2023-12-10T11:54:48.746Z,7.66
2023-12-10T11:55:52.522Z,7.63
2023-12-10T11:56:54.306Z,7.60
2023-12-10T11:57:57.719Z,7.61
2023-12-10T11:59:00.220Z,7.59
2023-12-10T12:00:05.997Z,7.63
2023-12-10T12:01:08.652Z,7.60
2023-12-10T12:02:10.326Z,7.49
2023-12-10T12:03:11.906Z,7.38
2023-12-10T12:04:13.605Z,7.37
2023-12-10T12:05:17.911Z,7.34
2023-12-10T12:06:19.981Z,7.16
2023-12-10T12:07:24.887Z,7.08
2023-12-10T12:08:29.552Z,7.06
2023-12-10T12:09:31.605Z,6.99
2023-12-10T12:10:37.781Z,6.92
2023-12-10T12:11:40.488Z,6.90
2023-12-10T12:12:46.617Z,6.85
2023-12-10T12:13:48.190Z,6.84
2023-12-10T12:14:52.310Z,6.78
2023-12-10T12:15:54.311Z,6.71
2023-12-10T12:26:57.116Z,6.45
2023-12-10T12:33:20.147Z,6.48
2023-12-10T12:34:21.877Z,6.54
2023-12-10T12:40:01.757Z,6.64
2023-12-10T12:41:05.522Z,6.67
2023-12-10T12:42:07.095Z,6.75
2023-12-10T12:43:08.901Z,6.76
2023-12-10T12:49:45.200Z,6.57
2023-12-10T12:50:46.694Z,6.65
2023-12-10T12:51:48.282Z,6.66
2023-12-10T13:08:45.084Z,6.41
2023-12-10T13:17:05.466Z,6.45
